createdAt,value
2019-03-12T00:00:57.818Z,1013.21
2019-03-12T00:01:57.786Z,1013.19
2019-03-12T00:02:57.748Z,1013.18
2019-03-12T00:03:57.718Z,1013.19
2019-03-12T00:04:57.687Z,1013.21
2019-03-12T00:05:57.656Z,1013.22
2019-03-12T00:06:57.623Z,1013.14
2019-03-12T00:07:57.592Z,1013.16
2019-03-12T00:08:57.563Z,1013.16
2019-03-12T00:09:57.529Z,1013.12
2019-03-12T00:10:57.496Z,1013.17
2019-03-12T00:11:57.466Z,1013.09
2019-03-12T00:12:57.435Z,1013.14
2019-03-12T00:13:57.402Z,1013.21
2019-03-12T00:14:57.370Z,1013.1
2019-03-12T00:15:57.339Z,1013.1
2019-03-12T00:16:57.308Z,1013.15
2019-03-12T00:17:57.307Z,1013.13
2019-03-12T00:18:57.243Z,1013.15
2019-03-12T00:19:57.212Z,1013.12
2019-03-12T00:20:57.178Z,1013.1
2019-03-12T00:21:57.148Z,1013.09
2019-03-12T00:22:57.115Z,1013.07
2019-03-12T00:23:57.084Z,1013.05
2019-03-12T00:24:57.054Z,1012.96
2019-03-12T00:25:57.019Z,1013.02
2019-03-12T00:26:56.994Z,1013
2019-03-12T00:27:56.956Z,1012.99
2019-03-12T00:28:56.924Z,1013
2019-03-12T00:29:56.890Z,1012.92
2019-03-12T00:30:56.858Z,1013
2019-03-12T00:31:56.826Z,1013
2019-03-12T00:32:56.794Z,1013.03
2019-03-12T00:33:56.763Z,1013.08
2019-03-12T00:34:56.731Z,1013.07
2019-03-12T00:35:56.697Z,1013.05
2019-03-12T00:36:56.666Z,1013.09
2019-03-12T00:37:56.634Z,1013.13
2019-03-12T00:38:56.622Z,1013.1
2019-03-12T00:39:56.575Z,1013.11
2019-03-12T00:40:56.536Z,1013.1
2019-03-12T00:41:56.504Z,1013.14
2019-03-12T00:42:56.473Z,1013.17
2019-03-12T00:43:56.441Z,1013.17
2019-03-12T00:44:56.411Z,1013.22
2019-03-12T00:45:56.376Z,1013.25
2019-03-12T00:46:56.343Z,1013.25
2019-03-12T00:47:56.310Z,1013.3
2019-03-12T00:48:56.293Z,1013.32
2019-03-12T00:49:56.250Z,1013.36
2019-03-12T00:50:56.213Z,1013.33
2019-03-12T00:51:56.182Z,1013.38
2019-03-12T00:52:56.149Z,1013.39
2019-03-12T00:53:56.116Z,1013.34
2019-03-12T00:54:56.082Z,1013.37
2019-03-12T00:55:56.051Z,1013.37
2019-03-12T00:56:56.019Z,1013.39
2019-03-12T00:57:55.984Z,1013.39
2019-03-12T00:58:55.953Z,1013.4
2019-03-12T00:59:56.456Z,1013.43
2019-03-12T01:00:55.888Z,1013.43
2019-03-12T01:01:55.854Z,1013.44
2019-03-12T01:02:55.823Z,1013.37
2019-03-12T01:03:55.790Z,1013.4
2019-03-12T01:04:55.757Z,1013.46
2019-03-12T01:05:55.725Z,1013.38
2019-03-12T01:06:55.695Z,1013.38
2019-03-12T01:07:55.668Z,1013.36
2019-03-12T01:08:55.627Z,1013.36
2019-03-12T01:09:55.594Z,1013.38
2019-03-12T01:10:55.562Z,1013.24
2019-03-12T01:11:55.529Z,1013.26
2019-03-12T01:12:55.499Z,1013.17
2019-03-12T01:13:55.468Z,1013.11
2019-03-12T01:14:55.437Z,1013.13
2019-03-12T01:15:55.398Z,1013.07
2019-03-12T01:16:55.366Z,1013.06
2019-03-12T01:17:55.334Z,1013.04
2019-03-12T01:18:55.305Z,1013.12
2019-03-12T01:19:55.268Z,1013.04
2019-03-12T01:20:55.235Z,1013.05
2019-03-12T01:21:55.203Z,1013.09
2019-03-12T01:22:55.169Z,1013.07
2019-03-12T01:23:55.136Z,1013.02
2019-03-12T01:24:55.184Z,1013.06
2019-03-12T01:25:55.072Z,1013.08
2019-03-12T01:26:55.039Z,1013.03
2019-03-12T01:27:55.006Z,1013.01
2019-03-12T01:28:54.972Z,1013.02
2019-03-12T01:29:54.940Z,1013.05
2019-03-12T01:30:54.907Z,1013.03
2019-03-12T01:31:54.875Z,1013.04
2019-03-12T01:32:54.842Z,1013.08
2019-03-12T01:33:54.809Z,1013.03
2019-03-12T01:34:54.775Z,1012.98
2019-03-12T01:35:54.743Z,1012.99
2019-03-12T01:36:54.710Z,1012.95
2019-03-12T01:37:54.677Z,1012.97
2019-03-12T01:38:54.643Z,1013
2019-03-12T01:39:54.611Z,1012.97
2019-03-12T01:40:54.579Z,1013.01
2019-03-12T01:41:54.545Z,1012.97
2019-03-12T01:42:54.512Z,1012.99
2019-03-12T01:43:54.504Z,1012.94
2019-03-12T01:44:54.445Z,1012.99
2019-03-12T01:45:54.412Z,1012.96
2019-03-12T01:46:54.379Z,1012.98
2019-03-12T01:47:54.348Z,1012.9
2019-03-12T01:48:54.313Z,1012.94
2019-03-12T01:49:54.280Z,1012.85
2019-03-12T01:50:54.249Z,1012.89
2019-03-12T01:51:54.219Z,1012.88
2019-03-12T01:52:54.182Z,1012.87
2019-03-12T01:53:54.150Z,1012.85
2019-03-12T01:54:54.122Z,1012.8
2019-03-12T01:55:54.083Z,1012.83
2019-03-12T01:56:54.051Z,1012.78
2019-03-12T01:57:54.018Z,1012.77
2019-03-12T01:58:53.985Z,1012.79
2019-03-12T01:59:53.951Z,1012.67
2019-03-12T02:00:53.917Z,1012.7
2019-03-12T02:01:53.885Z,1012.71
2019-03-12T02:02:53.853Z,1012.69
2019-03-12T02:03:53.819Z,1012.67
2019-03-12T02:04:53.786Z,1012.61
2019-03-12T02:05:53.753Z,1012.61
2019-03-12T02:06:53.722Z,1012.58
2019-03-12T02:07:53.688Z,1012.52
2019-03-12T02:08:53.655Z,1012.53
2019-03-12T02:09:53.621Z,1012.56
2019-03-12T02:10:53.586Z,1012.53
2019-03-12T02:11:53.553Z,1012.53
2019-03-12T02:12:53.522Z,1012.57
2019-03-12T02:13:53.489Z,1012.52
2019-03-12T02:14:53.455Z,1012.49
2019-03-12T02:15:53.426Z,1012.47
2019-03-12T02:16:53.392Z,1012.45
2019-03-12T02:17:53.365Z,1012.42
2019-03-12T02:18:53.322Z,1012.36
2019-03-12T02:19:53.289Z,1012.31
2019-03-12T02:20:53.258Z,1012.32
2019-03-12T02:21:53.223Z,1012.33
2019-03-12T02:22:53.190Z,1012.36
2019-03-12T02:23:53.156Z,1012.32
2019-03-12T02:24:53.291Z,1012.31
2019-03-12T02:25:53.090Z,1012.31
2019-03-12T02:26:53.061Z,1012.26
2019-03-12T02:27:53.026Z,1012.22
2019-03-12T02:28:52.994Z,1012.19
2019-03-12T02:29:52.958Z,1012.12
2019-03-12T02:30:52.924Z,1012.14
2019-03-12T02:31:52.892Z,1012.13
2019-03-12T02:32:52.859Z,1012.12
2019-03-12T02:33:52.825Z,1012.1
2019-03-12T02:34:52.794Z,1012.07
2019-03-12T02:35:52.759Z,1012.02
2019-03-12T02:36:52.726Z,1012
2019-03-12T02:37:52.693Z,1011.97
2019-03-12T02:38:52.660Z,1011.97
2019-03-12T02:39:52.628Z,1011.94
2019-03-12T02:40:52.594Z,1011.99
2019-03-12T02:41:52.560Z,1012.01
2019-03-12T02:42:52.528Z,1012
2019-03-12T02:43:52.493Z,1012.03
2019-03-12T02:44:52.462Z,1011.99
2019-03-12T02:45:52.429Z,1012.03
2019-03-12T02:46:52.426Z,1012.01
2019-03-12T02:47:52.363Z,1011.92
2019-03-12T02:48:52.329Z,1011.95
2019-03-12T02:49:52.296Z,1011.89
2019-03-12T02:50:52.260Z,1011.91
2019-03-12T02:51:52.227Z,1011.8
2019-03-12T02:52:52.194Z,1011.85
2019-03-12T02:53:52.162Z,1011.82
2019-03-12T02:54:52.140Z,1011.89
2019-03-12T02:55:52.237Z,1011.84
2019-03-12T02:56:52.071Z,1011.84
2019-03-12T02:57:52.030Z,1011.81
2019-03-12T02:58:51.995Z,1011.79
2019-03-12T02:59:51.961Z,1011.78
2019-03-12T03:00:51.938Z,1011.74
2019-03-12T03:01:51.894Z,1011.74
2019-03-12T03:02:51.873Z,1011.73
2019-03-12T03:03:51.830Z,1011.71
2019-03-12T03:04:54.167Z,1011.7
2019-03-12T03:05:51.767Z,1011.69
2019-03-12T03:06:51.729Z,1011.68
2019-03-12T03:07:51.696Z,1011.7
2019-03-12T03:08:51.662Z,1011.68
2019-03-12T03:09:51.629Z,1011.72
2019-03-12T03:10:51.595Z,1011.71
2019-03-12T03:11:51.726Z,1011.73
2019-03-12T03:12:51.529Z,1011.74
2019-03-12T03:13:51.496Z,1011.69
2019-03-12T03:14:51.465Z,1011.7
2019-03-12T03:15:51.429Z,1011.7
2019-03-12T03:16:51.444Z,1011.74
2019-03-12T03:17:51.366Z,1011.77
2019-03-12T03:18:51.330Z,1011.77
2019-03-12T03:19:51.295Z,1011.75
2019-03-12T03:20:51.261Z,1011.74
2019-03-12T03:21:51.236Z,1011.73
2019-03-12T03:22:51.195Z,1011.74
2019-03-12T03:23:51.161Z,1011.7
2019-03-12T03:24:51.130Z,1011.73
2019-03-12T03:25:51.094Z,1011.75
2019-03-12T03:26:51.061Z,1011.72
2019-03-12T03:27:51.027Z,1011.74
2019-03-12T03:28:50.994Z,1011.69
2019-03-12T03:29:50.965Z,1011.69
2019-03-12T03:30:51.101Z,1011.71
2019-03-12T03:31:50.894Z,1011.67
2019-03-12T03:32:50.879Z,1011.67
2019-03-12T03:33:50.846Z,1011.68
2019-03-12T03:34:50.812Z,1011.68
2019-03-12T03:35:50.770Z,1011.67
2019-03-12T03:36:50.728Z,1011.72
2019-03-12T03:37:50.693Z,1011.7
2019-03-12T03:38:50.658Z,1011.75
2019-03-12T03:39:50.625Z,1011.7
2019-03-12T03:40:50.591Z,1011.68
2019-03-12T03:41:50.557Z,1011.66
2019-03-12T03:42:50.574Z,1011.63
2019-03-12T03:43:50.496Z,1011.6
2019-03-12T03:44:50.460Z,1011.58
2019-03-12T03:45:50.427Z,1011.63
2019-03-12T03:46:50.390Z,1011.61
2019-03-12T03:47:50.359Z,1011.53
2019-03-12T03:48:50.323Z,1011.5
2019-03-12T03:49:50.289Z,1011.53
2019-03-12T03:50:50.259Z,1011.48
2019-03-12T03:51:50.241Z,1011.5
2019-03-12T03:52:50.193Z,1011.5
2019-03-12T03:53:50.156Z,1011.49
2019-03-12T03:54:50.121Z,1011.54
2019-03-12T03:55:50.089Z,1011.43
2019-03-12T03:56:50.058Z,1011.44
2019-03-12T03:57:50.021Z,1011.43
2019-03-12T03:58:49.987Z,1011.42
2019-03-12T03:59:49.962Z,1011.4
2019-03-12T04:00:49.921Z,1011.4
2019-03-12T04:01:49.888Z,1011.42
2019-03-12T04:02:49.852Z,1011.39
2019-03-12T04:03:49.820Z,1011.42
2019-03-12T04:04:49.786Z,1011.4
2019-03-12T04:05:49.754Z,1011.39
2019-03-12T04:06:49.721Z,1011.36
2019-03-12T04:07:49.692Z,1011.38
2019-03-12T04:08:49.651Z,1011.37
2019-03-12T04:09:49.622Z,1011.35
2019-03-12T04:10:49.586Z,1011.29
2019-03-12T04:11:49.552Z,1011.29
2019-03-12T04:12:49.520Z,1011.28
2019-03-12T04:13:49.486Z,1011.23
2019-03-12T04:14:49.451Z,1011.22
2019-03-12T04:15:49.423Z,1011.24
2019-03-12T04:16:49.385Z,1011.2
2019-03-12T04:17:49.396Z,1011.22
2019-03-12T04:18:49.336Z,1011.23
2019-03-12T04:19:49.285Z,1011.2
2019-03-12T04:20:49.251Z,1011.21
2019-03-12T04:21:49.234Z,1011.22
2019-03-12T04:22:49.184Z,1011.18
2019-03-12T04:23:49.153Z,1011.23
2019-03-12T04:24:49.119Z,1011.18
2019-03-12T04:25:49.086Z,1011.15
2019-03-12T04:26:49.054Z,1011.12
2019-03-12T04:27:49.018Z,1011.1
2019-03-12T04:28:48.984Z,1011.09
2019-03-12T04:29:48.973Z,1011.09
2019-03-12T04:30:48.919Z,1011.09
2019-03-12T04:31:48.884Z,1011.06
2019-03-12T04:32:48.853Z,1011.01
2019-03-12T04:33:48.824Z,1010.99
2019-03-12T04:34:48.785Z,1010.94
2019-03-12T04:35:48.751Z,1010.94
2019-03-12T04:36:48.720Z,1010.91
2019-03-12T04:37:48.686Z,1010.9
2019-03-12T04:38:48.655Z,1010.9
2019-03-12T04:39:48.620Z,1010.83
2019-03-12T04:40:48.586Z,1010.85
2019-03-12T04:41:48.553Z,1010.81
2019-03-12T04:42:48.520Z,1010.78
2019-03-12T04:43:48.487Z,1010.79
2019-03-12T04:44:48.454Z,1010.77
2019-03-12T04:45:48.422Z,1010.75
2019-03-12T04:46:48.388Z,1010.76
2019-03-12T04:47:48.367Z,1010.73
2019-03-12T04:48:48.321Z,1010.73
2019-03-12T04:49:48.290Z,1010.71
2019-03-12T04:50:48.266Z,1010.7
2019-03-12T04:51:48.223Z,1010.69
2019-03-12T04:52:48.191Z,1010.72
2019-03-12T04:53:48.157Z,1010.68
2019-03-12T04:54:48.123Z,1010.75
2019-03-12T04:55:48.092Z,1010.72
2019-03-12T04:56:48.060Z,1010.69
2019-03-12T04:57:48.027Z,1010.66
2019-03-12T04:58:47.993Z,1010.64
2019-03-12T04:59:47.959Z,1010.65
2019-03-12T05:00:47.928Z,1010.67
2019-03-12T05:01:47.895Z,1010.67
2019-03-12T05:02:47.860Z,1010.69
2019-03-12T05:03:47.828Z,1010.65
2019-03-12T05:04:47.797Z,1010.58
2019-03-12T05:05:47.762Z,1010.55
2019-03-12T05:06:47.727Z,1010.57
2019-03-12T05:07:47.697Z,1010.55
2019-03-12T05:08:47.664Z,1010.54
2019-03-12T05:09:47.630Z,1010.52
2019-03-12T05:10:47.596Z,1010.48
2019-03-12T05:11:47.563Z,1010.44
2019-03-12T05:12:47.531Z,1010.44
2019-03-12T05:13:47.498Z,1010.42
2019-03-12T05:14:47.465Z,1010.39
2019-03-12T05:15:47.432Z,1010.34
2019-03-12T05:16:47.398Z,1010.38
2019-03-12T05:17:47.371Z,1010.35
2019-03-12T05:18:47.332Z,1010.32
2019-03-12T05:19:47.301Z,1010.37
2019-03-12T05:20:47.268Z,1010.34
2019-03-12T05:21:47.235Z,1010.36
2019-03-12T05:22:47.205Z,1010.33
2019-03-12T05:23:47.171Z,1010.38
2019-03-12T05:24:47.136Z,1010.39
2019-03-12T05:25:47.104Z,1010.41
2019-03-12T05:26:47.071Z,1010.35
2019-03-12T05:27:47.038Z,1010.41
2019-03-12T05:28:47.006Z,1010.41
2019-03-12T05:29:46.973Z,1010.43
2019-03-12T05:30:46.942Z,1010.35
2019-03-12T05:31:46.908Z,1010.36
2019-03-12T05:32:46.875Z,1010.31
2019-03-12T05:33:46.844Z,1010.32
2019-03-12T05:34:46.814Z,1010.32
2019-03-12T05:35:46.972Z,1010.31
2019-03-12T05:36:46.745Z,1010.23
2019-03-12T05:37:46.714Z,1010.25
2019-03-12T05:38:46.683Z,1010.24
2019-03-12T05:39:46.649Z,1010.24
2019-03-12T05:40:46.614Z,1010.25
2019-03-12T05:41:46.603Z,1010.22
2019-03-12T05:42:46.548Z,1010.22
2019-03-12T05:43:46.516Z,1010.21
2019-03-12T05:44:46.482Z,1010.1
2019-03-12T05:45:46.451Z,1010.19
2019-03-12T05:46:46.424Z,1010.18
2019-03-12T05:47:46.386Z,1010.19
2019-03-12T05:48:46.352Z,1010.13
2019-03-12T05:49:46.321Z,1010.14
2019-03-12T05:50:46.285Z,1010.2
2019-03-12T05:51:46.252Z,1010.17
2019-03-12T05:52:48.768Z,1010.14
2019-03-12T05:53:46.187Z,1010.15
2019-03-12T05:54:46.157Z,1010.07
2019-03-12T05:55:46.126Z,1010.1
2019-03-12T05:56:46.090Z,1010.03
2019-03-12T05:57:46.058Z,1010.03
2019-03-12T05:58:46.024Z,1009.95
2019-03-12T05:59:45.993Z,1009.97
2019-03-12T06:00:45.961Z,1009.97
2019-03-12T06:01:46.839Z,1009.96
2019-03-12T06:02:45.893Z,1009.92
2019-03-12T06:03:45.862Z,1009.93
2019-03-12T06:04:45.829Z,1009.91
2019-03-12T06:05:45.795Z,1009.88
2019-03-12T06:06:45.763Z,1009.85
2019-03-12T06:07:45.731Z,1009.85
2019-03-12T06:08:45.701Z,1009.87
2019-03-12T06:09:45.665Z,1009.86
2019-03-12T06:10:45.634Z,1009.79
2019-03-12T06:11:45.737Z,1009.82
2019-03-12T06:12:45.570Z,1009.83
2019-03-12T06:13:45.536Z,1009.74
2019-03-12T06:14:45.505Z,1009.73
2019-03-12T06:15:45.472Z,1009.71
2019-03-12T06:16:45.443Z,1009.69
2019-03-12T06:17:45.407Z,1009.72
2019-03-12T06:18:45.374Z,1009.66
2019-03-12T06:19:45.347Z,1009.66
2019-03-12T06:20:45.310Z,1009.65
2019-03-12T06:21:45.279Z,1009.63
2019-03-12T06:22:45.248Z,1009.65
2019-03-12T06:23:45.213Z,1009.57
2019-03-12T06:24:45.247Z,1009.57
2019-03-12T06:25:45.149Z,1009.54
2019-03-12T06:26:45.117Z,1009.52
2019-03-12T06:27:45.086Z,1009.54
2019-03-12T06:28:45.052Z,1009.48
2019-03-12T06:29:45.021Z,1009.48
2019-03-12T06:30:44.989Z,1009.45
2019-03-12T06:31:44.958Z,1009.45
2019-03-12T06:32:44.926Z,1009.46
2019-03-12T06:33:44.893Z,1009.37
2019-03-12T06:34:44.862Z,1009.34
2019-03-12T06:35:44.834Z,1009.3
2019-03-12T06:36:44.798Z,1009.28
2019-03-12T06:37:44.766Z,1009.23
2019-03-12T06:38:44.735Z,1009.21
2019-03-12T06:39:44.704Z,1009.22
2019-03-12T06:40:44.726Z,1009.21
2019-03-12T06:41:44.641Z,1009.17
2019-03-12T06:42:44.611Z,1009.19
2019-03-12T06:43:44.578Z,1009.22
2019-03-12T06:44:44.547Z,1009.18
2019-03-12T06:45:44.514Z,1009.14
2019-03-12T06:46:44.484Z,1009.15
2019-03-12T06:47:46.482Z,1009.05
2019-03-12T06:48:44.424Z,1009.09
2019-03-12T06:49:44.391Z,1009.02
2019-03-12T06:50:44.360Z,1009.05
2019-03-12T06:51:44.331Z,1009.06
2019-03-12T06:52:44.298Z,1009.04
2019-03-12T06:53:44.267Z,1009.02
2019-03-12T06:54:44.237Z,1009
2019-03-12T06:55:44.207Z,1008.99
2019-03-12T06:56:44.174Z,1008.95
2019-03-12T06:57:44.186Z,1009
2019-03-12T06:58:44.113Z,1008.98
2019-03-12T06:59:44.083Z,1008.91
2019-03-12T07:00:44.051Z,1008.95
2019-03-12T07:01:44.033Z,1008.93
2019-03-12T07:02:43.992Z,1008.9
2019-03-12T07:03:43.962Z,1008.91
2019-03-12T07:04:43.945Z,1008.83
2019-03-12T07:05:43.900Z,1008.88
2019-03-12T07:06:43.867Z,1008.86
2019-03-12T07:07:45.771Z,1008.82
2019-03-12T07:08:43.809Z,1008.79
2019-03-12T07:09:43.783Z,1008.78
2019-03-12T07:10:43.749Z,1008.79
2019-03-12T07:11:43.715Z,1008.7
2019-03-12T07:12:43.685Z,1008.73
2019-03-12T07:13:43.655Z,1008.65
2019-03-12T07:14:43.626Z,1008.65
2019-03-12T07:15:43.595Z,1008.64
2019-03-12T07:16:43.567Z,1008.62
2019-03-12T07:17:45.633Z,1008.61
2019-03-12T07:18:43.503Z,1008.57
2019-03-12T07:19:43.475Z,1008.58
2019-03-12T07:20:43.443Z,1008.48
2019-03-12T07:21:43.413Z,1008.51
2019-03-12T07:22:43.388Z,1008.46
2019-03-12T07:23:43.356Z,1008.44
2019-03-12T07:24:43.322Z,1008.42
2019-03-12T07:25:43.293Z,1008.44
2019-03-12T07:26:43.264Z,1008.4
2019-03-12T07:27:43.235Z,1008.42
2019-03-12T07:28:49.973Z,1008.4
2019-03-12T07:29:43.178Z,1008.32
2019-03-12T07:30:43.147Z,1008.29
2019-03-12T07:31:43.116Z,1008.27
2019-03-12T07:32:43.141Z,1008.31
2019-03-12T07:33:43.056Z,1008.29
2019-03-12T07:34:43.027Z,1008.29
2019-03-12T07:35:42.998Z,1008.24
2019-03-12T07:36:42.968Z,1008.21
2019-03-12T07:37:42.944Z,1008.18
2019-03-12T07:38:42.913Z,1008.2
2019-03-12T07:39:42.878Z,1008.13
2019-03-12T07:40:42.850Z,1008.19
2019-03-12T07:41:42.822Z,1008.14
2019-03-12T07:42:42.892Z,1008.1
2019-03-12T07:43:43.123Z,1008.06
2019-03-12T07:44:43.022Z,1008.09
2019-03-12T07:45:42.997Z,1008.02
2019-03-12T07:46:42.673Z,1008.01
2019-03-12T07:47:42.732Z,1008
2019-03-12T07:48:42.614Z,1007.97
2019-03-12T07:49:42.585Z,1007.98
2019-03-12T07:50:42.558Z,1008.03
2019-03-12T07:51:42.526Z,1008.02
2019-03-12T07:52:42.498Z,1008.07
2019-03-12T07:53:42.468Z,1008.06
2019-03-12T07:54:42.439Z,1008.03
2019-03-12T07:55:42.410Z,1007.95
2019-03-12T07:56:42.381Z,1008.08
2019-03-12T07:57:42.351Z,1008.08
2019-03-12T07:58:42.323Z,1008.03
2019-03-12T07:59:42.296Z,1008.11
2019-03-12T08:00:42.265Z,1007.98
2019-03-12T08:01:42.234Z,1007.96
2019-03-12T08:02:42.205Z,1008
2019-03-12T08:03:42.177Z,1007.98
2019-03-12T08:04:43.527Z,1008.01
2019-03-12T08:05:42.119Z,1007.98
2019-03-12T08:06:42.092Z,1008.02
2019-03-12T08:07:42.200Z,1007.89
2019-03-12T08:08:42.203Z,1007.94
2019-03-12T08:09:42.004Z,1007.82
2019-03-12T08:10:41.977Z,1007.9
2019-03-12T08:11:41.946Z,1007.99
2019-03-12T08:12:41.916Z,1007.93
2019-03-12T08:13:41.897Z,1007.82
2019-03-12T08:14:41.859Z,1007.81
2019-03-12T08:15:41.831Z,1007.82
2019-03-12T08:16:41.802Z,1007.8
2019-03-12T08:17:41.775Z,1007.79
2019-03-12T08:18:41.747Z,1007.77
2019-03-12T08:19:41.718Z,1007.77
2019-03-12T08:20:41.689Z,1007.73
2019-03-12T08:21:41.663Z,1007.7
2019-03-12T08:22:41.634Z,1007.76
2019-03-12T08:23:41.605Z,1007.7
2019-03-12T08:24:41.578Z,1007.72
2019-03-12T08:25:43.840Z,1007.69
2019-03-12T08:26:41.521Z,1007.72
2019-03-12T08:27:41.491Z,1007.66
2019-03-12T08:28:41.464Z,1007.7
2019-03-12T08:29:41.437Z,1007.63
2019-03-12T08:30:41.407Z,1007.61
2019-03-12T08:31:41.382Z,1007.6
2019-03-12T08:32:41.404Z,1007.56
2019-03-12T08:33:50.201Z,1007.58
2019-03-12T08:34:41.541Z,1007.41
2019-03-12T08:35:41.483Z,1007.48
2019-03-12T08:36:41.241Z,1007.38
2019-03-12T08:37:41.213Z,1007.35
2019-03-12T08:38:41.185Z,1007.36
2019-03-12T08:39:41.158Z,1007.27
2019-03-12T08:40:51.875Z,1007.27
2019-03-12T08:41:41.101Z,1007.28
2019-03-12T08:42:53.620Z,1007.27
2019-03-12T08:43:41.047Z,1007.22
2019-03-12T08:44:42.416Z,1007.18
2019-03-12T08:45:40.993Z,1007.19
2019-03-12T08:46:40.963Z,1007.17
2019-03-12T08:47:40.934Z,1007.24
2019-03-12T08:48:40.907Z,1007.16
2019-03-12T08:49:40.880Z,1007.2
2019-03-12T08:50:40.867Z,1007.12
2019-03-12T08:51:40.825Z,1007.13
2019-03-12T08:52:40.796Z,1007.01
2019-03-12T08:53:41.403Z,1007.01
2019-03-12T08:54:53.358Z,1007.01
2019-03-12T08:55:40.718Z,1006.93
2019-03-12T08:56:40.689Z,1006.98
2019-03-12T08:57:40.664Z,1006.85
2019-03-12T08:58:40.632Z,1006.8
2019-03-12T08:59:40.604Z,1006.78
2019-03-12T09:00:40.642Z,1006.79
2019-03-12T09:01:41.892Z,1006.67
2019-03-12T09:02:40.523Z,1006.66
2019-03-12T09:03:40.494Z,1006.57
2019-03-12T09:04:40.515Z,1006.53
2019-03-12T09:05:40.440Z,1006.51
2019-03-12T09:06:40.413Z,1006.45
2019-03-12T09:07:40.386Z,1006.52
2019-03-12T09:08:40.360Z,1006.46
2019-03-12T09:09:40.332Z,1006.48
2019-03-12T09:10:40.303Z,1006.47
2019-03-12T09:11:40.280Z,1006.35
2019-03-12T09:12:40.251Z,1006.3
2019-03-12T09:13:40.225Z,1006.31
2019-03-12T09:14:40.197Z,1006.35
2019-03-12T09:15:40.393Z,1006.33
2019-03-12T09:16:40.146Z,1006.34
2019-03-12T09:17:40.119Z,1006.34
2019-03-12T09:18:40.118Z,1006.21
2019-03-12T09:19:40.063Z,1006.23
2019-03-12T09:20:40.063Z,1006.2
2019-03-12T09:21:40.084Z,1006.17
2019-03-12T09:22:40.408Z,1006.18
2019-03-12T09:23:40.220Z,1006.13
2019-03-12T09:24:39.933Z,1006.14
2019-03-12T09:25:39.902Z,1006.19
2019-03-12T09:26:39.877Z,1006.06
2019-03-12T09:27:39.852Z,1006.06
2019-03-12T09:28:39.823Z,1006
2019-03-12T09:29:39.797Z,1005.96
2019-03-12T09:30:39.919Z,1005.89
2019-03-12T09:31:39.746Z,1005.91
2019-03-12T09:32:39.718Z,1005.84
2019-03-12T09:33:39.693Z,1005.81
2019-03-12T09:34:39.666Z,1005.83
2019-03-12T09:35:39.642Z,1005.71
2019-03-12T09:36:39.615Z,1005.76
2019-03-12T09:37:39.589Z,1005.74
2019-03-12T09:38:39.562Z,1005.74
2019-03-12T09:39:39.536Z,1005.67
2019-03-12T09:40:39.512Z,1005.68
2019-03-12T09:41:39.486Z,1005.55
2019-03-12T09:42:39.461Z,1005.55
2019-03-12T09:43:39.436Z,1005.52
2019-03-12T09:44:39.408Z,1005.49
2019-03-12T09:45:39.387Z,1005.39
2019-03-12T09:46:39.358Z,1005.39
2019-03-12T09:47:39.331Z,1005.39
2019-03-12T09:48:39.306Z,1005.39
2019-03-12T09:49:39.281Z,1005.36
2019-03-12T09:50:39.255Z,1005.33
2019-03-12T09:51:39.228Z,1005.38
2019-03-12T09:52:39.205Z,1005.21
2019-03-12T09:53:39.178Z,1005.33
2019-03-12T09:54:39.152Z,1005.33
2019-03-12T09:55:39.131Z,1005.34
2019-03-12T09:56:39.101Z,1005.27
2019-03-12T09:57:39.076Z,1005.12
2019-03-12T09:58:39.051Z,1005.18
2019-03-12T09:59:39.025Z,1005.11
2019-03-12T10:00:39.004Z,1005.13
2019-03-12T10:01:38.974Z,1005.11
2019-03-12T10:02:38.966Z,1005.04
2019-03-12T10:03:38.923Z,1005
2019-03-12T10:04:38.947Z,1005
2019-03-12T10:05:38.872Z,1004.97
2019-03-12T10:06:38.847Z,1004.97
2019-03-12T10:07:40.083Z,1005.09
2019-03-12T10:08:38.795Z,1004.88
2019-03-12T10:09:38.770Z,1004.88
2019-03-12T10:10:38.746Z,1004.87
2019-03-12T10:11:38.721Z,1004.74
2019-03-12T10:12:38.695Z,1004.7
2019-03-12T10:13:38.678Z,1004.77
2019-03-12T10:14:38.645Z,1004.69
2019-03-12T10:15:38.621Z,1004.74
2019-03-12T10:16:38.595Z,1004.6
2019-03-12T10:17:38.569Z,1004.6
2019-03-12T10:18:38.544Z,1004.51
2019-03-12T10:19:38.522Z,1004.55
2019-03-12T10:20:38.494Z,1004.53
2019-03-12T10:21:38.469Z,1004.58
2019-03-12T10:22:38.445Z,1004.51
2019-03-12T10:23:38.418Z,1004.44
2019-03-12T10:24:38.394Z,1004.44
2019-03-12T10:25:38.386Z,1004.41
2019-03-12T10:26:38.346Z,1004.46
2019-03-12T10:27:38.320Z,1004.38
2019-03-12T10:28:38.295Z,1004.39
2019-03-12T10:29:38.269Z,1004.38
2019-03-12T10:30:38.246Z,1004.41
2019-03-12T10:31:38.219Z,1004.32
2019-03-12T10:32:38.195Z,1004.35
2019-03-12T10:33:38.170Z,1004.27
2019-03-12T10:34:38.152Z,1004.2
2019-03-12T10:35:38.121Z,1004.14
2019-03-12T10:36:38.097Z,1004.15
2019-03-12T10:37:38.071Z,1004.12
2019-03-12T10:38:38.047Z,1004.15
2019-03-12T10:39:38.022Z,1004.12
2019-03-12T10:40:37.997Z,1004.14
2019-03-12T10:41:37.971Z,1004.13
2019-03-12T10:42:37.948Z,1004.05
2019-03-12T10:43:37.924Z,1004
2019-03-12T10:44:37.899Z,1003.94
2019-03-12T10:45:37.872Z,1004.02
2019-03-12T10:46:37.849Z,1003.87
2019-03-12T10:47:37.825Z,1003.85
2019-03-12T10:48:37.800Z,1003.8
2019-03-12T10:49:37.977Z,1003.81
2019-03-12T10:50:37.756Z,1003.7
2019-03-12T10:51:37.724Z,1003.68
2019-03-12T10:52:37.701Z,1003.7
2019-03-12T10:53:37.770Z,1003.86
2019-03-12T10:54:37.651Z,1003.71
2019-03-12T10:55:37.626Z,1003.68
2019-03-12T10:56:37.601Z,1003.63
2019-03-12T10:57:37.576Z,1003.66
2019-03-12T10:58:37.652Z,1003.58
2019-03-12T10:59:37.593Z,1003.56
2019-03-12T11:00:37.509Z,1003.54
2019-03-12T11:01:37.479Z,1003.54
2019-03-12T11:02:40.523Z,1003.55
2019-03-12T11:03:37.430Z,1003.4
2019-03-12T11:04:37.452Z,1003.44
2019-03-12T11:05:45.638Z,1003.41
2019-03-12T11:06:37.358Z,1003.33
2019-03-12T11:07:37.332Z,1003.31
2019-03-12T11:08:37.309Z,1003.28
2019-03-12T11:09:37.284Z,1003.33
2019-03-12T11:10:37.262Z,1003.24
2019-03-12T11:11:37.275Z,1003.22
2019-03-12T11:12:37.250Z,1003.24
2019-03-12T11:13:37.225Z,1003.11
2019-03-12T11:14:37.163Z,1003.17
2019-03-12T11:15:37.137Z,1003.12
2019-03-12T11:16:37.113Z,1003.11
2019-03-12T11:17:48.642Z,1003.12
2019-03-12T11:18:37.181Z,1003.08
2019-03-12T11:19:37.168Z,1003.13
2019-03-12T11:20:37.147Z,1002.86
2019-03-12T11:21:36.995Z,1002.99
2019-03-12T11:22:36.970Z,1002.89
2019-03-12T11:23:36.947Z,1002.88
2019-03-12T11:24:36.926Z,1002.82
2019-03-12T11:25:36.902Z,1002.88
2019-03-12T11:26:36.876Z,1002.79
2019-03-12T11:27:36.854Z,1002.86
2019-03-12T11:28:36.830Z,1002.9
2019-03-12T11:29:36.806Z,1002.9
2019-03-12T11:30:36.786Z,1002.84
2019-03-12T11:31:36.761Z,1002.76
2019-03-12T11:32:36.741Z,1002.7
2019-03-12T11:33:36.714Z,1002.8
2019-03-12T11:34:38.498Z,1002.71
2019-03-12T11:35:38.921Z,1002.58
2019-03-12T11:36:36.647Z,1002.52
2019-03-12T11:37:36.622Z,1002.64
2019-03-12T11:38:36.598Z,1002.43
2019-03-12T11:39:36.595Z,1002.48
2019-03-12T11:40:36.551Z,1002.34
2019-03-12T11:41:36.529Z,1002.33
2019-03-12T11:42:36.526Z,1002.31
2019-03-12T11:43:36.481Z,1002.35
2019-03-12T11:44:36.459Z,1002.28
2019-03-12T11:45:37.601Z,1002.24
2019-03-12T11:46:42.317Z,1002.23
2019-03-12T11:47:36.390Z,1002.25
2019-03-12T11:48:36.369Z,1002.23
2019-03-12T11:49:36.344Z,1002.21
2019-03-12T11:50:36.321Z,1002.14
2019-03-12T11:51:36.296Z,1002.02
2019-03-12T11:52:36.274Z,1001.9
2019-03-12T11:53:36.251Z,1001.95
2019-03-12T11:54:36.241Z,1001.93
2019-03-12T11:55:36.205Z,1001.93
2019-03-12T11:56:36.189Z,1001.76
2019-03-12T11:57:36.159Z,1001.8
2019-03-12T11:58:36.150Z,1001.81
2019-03-12T11:59:36.112Z,1001.9
2019-03-12T12:00:36.111Z,1001.75
2019-03-12T12:01:36.066Z,1001.65
2019-03-12T12:02:36.042Z,1001.64
2019-03-12T12:03:36.019Z,1001.66
2019-03-12T12:04:35.996Z,1001.63
2019-03-12T12:05:35.974Z,1001.6
2019-03-12T12:06:35.954Z,1001.52
2019-03-12T12:07:35.965Z,1001.55
2019-03-12T12:08:35.906Z,1001.42
2019-03-12T12:09:35.999Z,1001.35